Time;durP1;ratioP1;P1;durP2;ratioP2;P2;SDS_P1;SDS_P2;PMS_P1;PMS_P2;Temp;Humidity;BMP_temperature;BMP_pressure;BME280_temperature;BME280_humidity;BME280_pressure;Samples;Min_cycle;Max_cycle;Signal;HPM_P1;HPM_P2
2022/12/19 00:01:16;;;;;;;51.85;25.70;;;;;;;6.67;57.38;102851.56;5052112;28;20386;-75
2022/12/19 00:03:53;;;;;;;52.45;26.65;;;;;;;6.29;58.08;102844.66;5051947;28;20041;-75
2022/12/19 00:06:19;;;;;;;58.85;28.20;;;;;;;6.33;58.05;102841.84;5051888;28;20507;-74
2022/12/19 00:08:47;;;;;;;60.85;27.23;;;;;;;6.32;58.49;102850.81;5052027;28;20408;-75
2022/12/19 00:11:14;;;;;;;61.05;28.70;;;;;;;6.34;58.74;102832.91;5052005;28;20100;-74
2022/12/19 00:13:40;;;;;;;56.22;27.83;;;;;;;6.41;58.80;102855.88;5054517;28;20025;-76
2022/12/19 00:16:09;;;;;;;63.67;27.65;;;;;;;6.26;58.57;102853.66;5057790;28;20039;-76
2022/12/19 00:18:35;;;;;;;55.38;27.40;;;;;;;6.04;59.18;102825.75;5054989;28;20117;-76
2022/12/19 00:21:03;;;;;;;60.75;28.90;;;;;;;6.22;59.01;102851.97;5051653;28;20124;-75
2022/12/19 00:23:31;;;;;;;58.55;28.85;;;;;;;6.15;59.30;102834.34;5051782;28;20029;-75
2022/12/19 00:26:25;;;;;;;57.40;30.33;;;;;;;6.31;59.23;102869.53;5051722;28;20043;-75
2022/12/19 00:28:59;;;;;;;65.07;29.80;;;;;;;6.12;59.88;102870.94;5051721;28;20569;-75
2022/12/19 00:31:27;;;;;;;62.53;28.70;;;;;;;5.96;59.63;102883.88;5051716;28;20413;-76
2022/12/19 00:33:53;;;;;;;62.30;30.60;;;;;;;5.85;60.51;102876.13;5051735;28;20098;-76
2022/12/19 00:36:21;;;;;;;63.15;30.95;;;;;;;5.88;59.92;102865.38;5051781;28;20455;-75
2022/12/19 00:38:48;;;;;;;69.82;30.83;;;;;;;5.74;60.50;102867.50;5051520;28;20035;-75
2022/12/19 00:41:17;;;;;;;62.97;31.10;;;;;;;5.81;60.71;102890.44;5054021;28;20032;-76
2022/12/19 00:43:43;;;;;;;65.60;31.80;;;;;;;5.58;60.67;102836.75;5054133;28;20029;-75
2022/12/19 00:46:11;;;;;;;67.00;30.65;;;;;;;5.93;60.45;102883.94;5053048;28;20150;-75
2022/12/19 00:48:36;;;;;;;64.10;31.60;;;;;;;6.02;60.52;102878.38;5051351;28;20045;-76
2022/12/19 00:51:04;;;;;;;66.07;33.03;;;;;;;5.92;60.23;102840.34;5051309;28;20419;-76
2022/12/19 00:53:30;;;;;;;56.58;29.65;;;;;;;5.96;60.11;102857.16;5051123;28;20129;-76
2022/12/19 00:55:55;;;;;;;73.75;33.75;;;;;;;5.89;60.41;102872.47;5051284;28;20775;-75
2022/12/19 00:58:22;;;;;;;60.72;32.67;;;;;;;5.72;60.95;102860.44;5050956;28;20041;-76
2022/12/19 01:00:47;;;;;;;60.90;30.77;;;;;;;5.59;61.25;102859.88;5050977;28;20138;-75
2022/12/19 01:03:13;;;;;;;71.40;33.85;;;;;;;5.71;60.94;102858.69;5031897;28;20041;-75
2022/12/19 01:05:38;;;;;;;73.30;34.70;;;;;;;5.63;60.76;102820.59;5051124;28;20537;-77
2022/12/19 01:08:04;;;;;;;65.20;31.02;;;;;;;5.77;60.60;102853.19;5050864;28;20029;-75
2022/12/19 01:10:29;;;;;;;76.28;32.90;;;;;;;5.78;60.42;102862.97;5048892;28;20356;-76
2022/12/19 01:12:55;;;;;;;72.45;33.92;;;;;;;5.59;60.94;102877.69;5050321;28;20028;-74
2022/12/19 01:15:20;;;;;;;73.18;33.72;;;;;;;5.74;60.94;102875.50;5050771;28;20025;-76
2022/12/19 01:17:47;;;;;;;65.03;31.25;;;;;;;5.82;60.77;102875.28;5050784;28;20033;-75
2022/12/19 01:20:18;;;;;;;66.30;31.30;;;;;;;5.66;60.48;102863.22;5050713;28;20031;-76
2022/12/19 01:22:44;;;;;;;61.20;30.55;;;;;;;5.12;61.76;102871.69;5050727;28;20097;-75
2022/12/19 01:25:10;;;;;;;62.08;32.55;;;;;;;5.04;61.22;102841.66;5050702;28;20116;-76
2022/12/19 01:27:36;;;;;;;76.88;32.90;;;;;;;5.34;61.03;102891.63;5050575;28;20505;-75
2022/12/19 01:30:02;;;;;;;61.25;29.98;;;;;;;5.34;61.13;102882.72;5050036;28;20025;-76
2022/12/19 01:32:28;;;;;;;62.20;30.30;;;;;;;5.41;60.86;102885.19;5050187;28;20033;-75
2022/12/19 01:34:53;;;;;;;58.05;28.60;;;;;;;5.34;60.49;102880.94;5050127;28;20083;-75
2022/12/19 01:37:19;;;;;;;58.63;29.35;;;;;;;5.12;61.29;102886.81;5050090;28;20391;-74
2022/12/19 01:39:45;;;;;;;63.90;30.48;;;;;;;5.05;61.62;102886.06;5050169;28;20472;-74
2022/12/19 01:42:19;;;;;;;74.45;30.35;;;;;;;4.97;62.18;102892.47;5049795;28;20416;-75
2022/12/19 01:45:06;;;;;;;60.75;28.48;;;;;;;4.94;61.81;102888.09;5055880;28;20047;-75
2022/12/19 01:47:41;;;;;;;59.53;30.88;;;;;;;4.93;62.00;102897.00;5057477;28;20025;-75
2022/12/19 01:50:13;;;;;;;57.08;27.63;;;;;;;4.86;61.80;102898.91;5050922;28;20088;-74
2022/12/19 01:52:38;;;;;;;57.88;26.33;;;;;;;4.67;61.87;102862.91;5050007;28;20063;-75
2022/12/19 01:55:05;;;;;;;60.70;28.33;;;;;;;4.82;61.98;102861.69;5064152;28;20072;-75
2022/12/19 01:57:31;;;;;;;57.60;27.92;;;;;;;5.06;61.70;102897.59;5047467;28;20029;-75
2022/12/19 01:59:59;;;;;;;62.70;27.38;;;;;;;4.92;61.66;102895.25;5049659;28;20032;-76
2022/12/19 02:02:34;;;;;;;56.05;26.38;;;;;;;4.94;61.01;102901.44;5049680;28;20112;-75
2022/12/19 02:05:03;;;;;;;56.75;27.45;;;;;;;4.71;61.80;102851.25;5050044;28;20052;-75
2022/12/19 02:07:31;;;;;;;55.13;25.58;;;;;;;5.18;60.92;102898.22;5049605;28;20025;-75
2022/12/19 02:09:57;;;;;;;56.95;24.67;;;;;;;5.13;60.80;102900.13;5049423;28;20439;-75
2022/12/19 02:12:28;;;;;;;51.80;24.75;;;;;;;5.09;60.70;102902.88;5049587;28;20025;-75
2022/12/19 02:14:57;;;;;;;48.22;24.27;;;;;;;5.03;60.67;102893.22;5049493;28;20726;-75
2022/12/19 02:17:35;;;;;;;50.00;24.30;;;;;;;4.89;60.74;102903.34;5049574;28;20029;-75
2022/12/19 02:20:23;;;;;;;48.92;24.60;;;;;;;4.96;60.76;102918.25;5049273;28;20555;-75
2022/12/19 02:23:09;;;;;;;44.30;22.02;;;;;;;5.10;60.87;102925.97;5006120;28;20579;-75
2022/12/19 02:26:15;;;;;;;47.05;23.20;;;;;;;4.98;61.18;102921.78;5007094;28;20045;-75
2022/12/19 02:29:03;;;;;;;49.05;22.88;;;;;;;5.18;60.67;102934.69;5006955;28;20038;-74
2022/12/19 02:31:33;;;;;;;44.25;23.40;;;;;;;5.10;60.54;102945.53;5007188;28;20486;-74
2022/12/19 02:34:34;;;;;;;42.67;20.63;;;;;;;4.92;60.22;102949.44;4958936;28;20102;-75
2022/12/19 02:37:07;;;;;;;47.15;21.80;;;;;;;4.52;60.07;102936.97;5007303;28;20053;-75
2022/12/19 02:40:11;;;;;;;44.70;21.35;;;;;;;4.55;60.28;102932.47;5010446;28;20033;-76
2022/12/19 02:42:40;;;;;;;51.42;21.30;;;;;;;4.13;61.08;102947.44;4916526;29;20032;-75
2022/12/19 02:45:09;;;;;;;41.05;20.27;;;;;;;4.10;61.35;102946.63;4911767;29;20052;-76
2022/12/19 02:47:36;;;;;;;41.60;20.92;;;;;;;4.14;61.80;102954.53;4913656;29;20269;-75
2022/12/19 02:50:03;;;;;;;44.05;18.80;;;;;;;4.06;61.53;102950.25;4915768;29;20086;-75
2022/12/19 02:52:28;;;;;;;39.65;18.27;;;;;;;4.13;61.36;102952.78;4916703;29;20047;-75
2022/12/19 02:54:59;;;;;;;39.55;20.58;;;;;;;4.24;61.47;102953.47;4911560;29;20172;-76
2022/12/19 02:57:29;;;;;;;38.33;18.58;;;;;;;4.24;61.23;102958.81;4912233;29;20040;-75
2022/12/19 03:00:11;;;;;;;39.38;18.48;;;;;;;4.24;61.58;102964.13;4940878;28;20042;-75
2022/12/19 03:03:23;;;;;;;33.65;16.70;;;;;;;4.06;60.79;102921.84;4967894;28;20380;-75
2022/12/19 03:06:17;;;;;;;43.92;18.85;;;;;;;4.01;60.68;102928.13;4967749;28;20041;-74
2022/12/19 03:09:01;;;;;;;45.78;19.13;;;;;;;4.18;61.06;102982.88;4967908;28;20122;-75
2022/12/19 03:11:33;;;;;;;38.75;17.85;;;;;;;4.31;60.97;102978.22;4967668;28;20031;-74
2022/12/19 03:14:04;;;;;;;47.15;19.73;;;;;;;4.28;60.73;102986.28;4967596;28;20062;-75
2022/12/19 03:16:32;;;;;;;39.38;17.27;;;;;;;4.09;60.59;102952.88;5006709;28;20037;-74
2022/12/19 03:18:58;;;;;;;36.58;17.60;;;;;;;4.19;60.52;102986.44;5048968;28;20084;-75
2022/12/19 03:21:34;;;;;;;32.70;16.85;;;;;;;4.03;60.80;103000.91;5048624;28;20032;-75
2022/12/19 03:24:01;;;;;;;35.60;17.92;;;;;;;4.07;60.78;102992.81;5048714;28;20102;-74
2022/12/19 03:26:36;;;;;;;42.92;17.83;;;;;;;4.05;61.29;102967.13;5048704;28;20029;-76
2022/12/19 03:29:24;;;;;;;40.30;17.80;;;;;;;3.96;60.75;102938.88;5048843;28;20017;-75
2022/12/19 03:31:51;;;;;;;38.53;18.30;;;;;;;4.23;60.64;103004.09;5048514;28;20154;-75
2022/12/19 03:34:19;;;;;;;38.78;17.60;;;;;;;4.16;60.85;102984.69;5050073;28;20083;-75
2022/12/19 03:36:54;;;;;;;37.33;17.27;;;;;;;4.20;60.71;102988.16;5052851;28;20083;-77
2022/12/19 03:39:22;;;;;;;39.63;17.58;;;;;;;4.54;60.35;103009.75;5052513;28;20032;-77
2022/12/19 03:44:38;;;;;;;38.95;19.08;;;;;;;4.68;60.14;103007.75;5052411;28;20112;-75
2022/12/19 03:47:13;;;;;;;39.08;17.13;;;;;;;4.37;59.65;103018.94;5051822;28;20028;-76
2022/12/19 03:49:39;;;;;;;42.08;17.20;;;;;;;4.26;59.92;103015.59;5052169;28;20045;-75
2022/12/19 03:52:28;;;;;;;33.88;17.35;;;;;;;4.30;60.46;103024.41;5054411;28;20040;-76
2022/12/19 03:55:06;;;;;;;31.38;15.55;;;;;;;4.34;60.22;103024.31;5058216;28;20036;-76
2022/12/19 03:57:46;;;;;;;43.58;18.35;;;;;;;4.43;60.11;103033.06;5052788;28;20036;-75
2022/12/19 04:00:14;;;;;;;34.40;15.15;;;;;;;4.48;60.25;103018.75;5052529;28;20071;-75
2022/12/19 04:02:44;;;;;;;30.65;15.45;;;;;;;4.44;59.59;103029.47;5052668;28;20033;-75
2022/12/19 04:05:16;;;;;;;37.05;16.85;;;;;;;4.30;60.39;103035.06;5049856;28;20126;-75
2022/12/19 04:07:43;;;;;;;37.13;17.27;;;;;;;4.38;60.48;103035.81;5052396;28;20021;-76
2022/12/19 04:10:13;;;;;;;27.65;14.40;;;;;;;4.40;60.50;103039.34;5052240;28;20034;-75
2022/12/19 04:12:58;;;;;;;42.85;18.02;;;;;;;4.46;60.29;103041.91;5054610;28;20118;-74
2022/12/19 04:15:43;;;;;;;33.92;16.92;;;;;;;4.48;60.45;103044.50;5051954;28;20508;-75
2022/12/19 04:18:11;;;;;;;37.05;17.15;;;;;;;4.65;59.99;103045.09;5052359;28;20025;-76
2022/12/19 04:20:41;;;;;;;32.10;13.88;;;;;;;4.57;59.92;103049.69;5052004;28;20036;-74
2022/12/19 04:23:15;;;;;;;35.50;17.45;;;;;;;4.60;60.28;103038.97;5051932;28;20083;-75
2022/12/19 04:25:47;;;;;;;34.35;17.50;;;;;;;4.65;59.83;103018.44;5052463;28;20025;-75
2022/12/19 04:28:37;;;;;;;34.13;16.57;;;;;;;4.73;59.64;103037.84;5051739;28;20017;-75
2022/12/19 04:31:03;;;;;;;37.30;16.88;;;;;;;4.37;60.30;103031.41;5051795;28;20396;-76
2022/12/19 04:33:28;;;;;;;37.47;14.50;;;;;;;4.24;60.18;103016.53;5051348;28;20036;-75
2022/12/19 04:35:54;;;;;;;34.15;15.32;;;;;;;4.29;59.51;103043.94;5051651;28;20032;-74
2022/12/19 04:38:22;;;;;;;37.65;14.98;;;;;;;4.09;59.88;103038.97;5053012;28;20040;-75
2022/12/19 04:40:48;;;;;;;38.15;16.50;;;;;;;4.08;59.90;103058.50;5052762;28;20484;-75
2022/12/19 04:43:13;;;;;;;33.28;14.85;;;;;;;3.97;60.56;103070.22;5053829;28;20025;-75
2022/12/19 04:45:42;;;;;;;34.70;16.52;;;;;;;3.90;60.70;103072.09;5052412;28;20475;-76
2022/12/19 04:48:07;;;;;;;42.05;16.60;;;;;;;3.69;61.25;103070.63;5051953;28;20040;-75
2022/12/19 04:50:33;;;;;;;35.83;16.30;;;;;;;3.79;61.19;103077.56;5051527;28;20025;-76
2022/12/19 04:52:59;;;;;;;36.15;15.65;;;;;;;3.73;61.48;103071.47;5051651;28;20025;-76
2022/12/19 04:55:25;;;;;;;41.42;16.35;;;;;;;3.62;61.55;103068.94;5052024;28;20035;-76
2022/12/19 04:57:50;;;;;;;37.03;16.95;;;;;;;3.65;61.77;103081.31;5055116;28;20098;-76
2022/12/19 05:00:16;;;;;;;62.63;18.35;;;;;;;3.92;61.42;103083.59;5055977;28;20143;-74
2022/12/19 05:02:42;;;;;;;42.58;16.58;;;;;;;3.97;61.08;103089.75;5051629;28;20032;-74
2022/12/19 05:05:07;;;;;;;39.45;15.77;;;;;;;3.96;61.10;103087.09;5051686;28;20025;-76
2022/12/19 05:07:33;;;;;;;41.00;16.05;;;;;;;4.13;60.56;103088.59;5050873;28;20033;-76
2022/12/19 05:09:58;;;;;;;61.33;17.30;;;;;;;3.95;60.20;103045.38;5051467;28;20023;-77
2022/12/19 05:12:24;;;;;;;40.13;16.38;;;;;;;4.35;59.62;103097.13;5049703;28;20455;-78
2022/12/19 05:14:49;;;;;;;41.85;16.88;;;;;;;4.43;59.48;103102.34;5051117;28;20062;-76
2022/12/19 05:17:15;;;;;;;47.63;17.55;;;;;;;4.26;59.39;103068.84;5051128;28;20033;-76
2022/12/19 05:19:40;;;;;;;43.65;18.20;;;;;;;4.54;59.33;103119.03;5051515;28;20025;-75
2022/12/19 05:22:06;;;;;;;32.00;15.45;;;;;;;4.56;59.03;103115.44;5050379;28;20180;-75
2022/12/19 05:24:31;;;;;;;42.13;15.80;;;;;;;4.15;57.33;103128.53;5050278;28;20086;-76
2022/12/19 05:26:56;;;;;;;48.08;15.35;;;;;;;4.06;57.64;103126.00;5050438;28;20033;-75
2022/12/19 05:29:22;;;;;;;38.35;14.60;;;;;;;4.15;57.69;103128.53;5050010;28;20425;-75
2022/12/19 05:31:47;;;;;;;32.85;13.98;;;;;;;3.92;57.97;103126.19;5050313;28;20029;-75
2022/12/19 05:34:13;;;;;;;43.47;14.30;;;;;;;3.74;57.69;103132.66;5050182;28;20029;-74
2022/12/19 05:36:38;;;;;;;40.20;14.75;;;;;;;3.79;57.98;103132.63;5064850;28;20048;-77
2022/12/19 05:39:03;;;;;;;46.65;14.55;;;;;;;3.78;57.93;103138.81;5049616;28;20516;-75
2022/12/19 05:41:29;;;;;;;41.67;14.45;;;;;;;3.56;57.30;103143.53;5050301;28;20469;-78
2022/12/19 05:43:55;;;;;;;32.97;13.25;;;;;;;3.16;57.78;103153.75;5050213;28;20384;-76
2022/12/19 05:46:22;;;;;;;44.15;15.23;;;;;;;2.89;59.03;103143.38;5050192;28;20032;-77
2022/12/19 05:48:48;;;;;;;68.50;24.02;;;;;;;3.01;58.87;103135.28;5050077;28;20102;-74
2022/12/19 05:51:14;;;;;;;64.40;19.25;;;;;;;3.07;59.08;103142.31;5050010;28;20495;-76
2022/12/19 05:53:40;;;;;;;37.47;14.07;;;;;;;3.10;59.07;103151.16;5049752;28;20063;-75
2022/12/19 05:56:11;;;;;;;65.15;15.35;;;;;;;3.14;58.69;103150.22;5049694;28;20033;-78
2022/12/19 05:58:38;;;;;;;35.40;12.02;;;;;;;2.71;59.29;103088.66;5052165;28;20181;-76
2022/12/19 06:01:09;;;;;;;56.65;13.15;;;;;;;2.80;59.10;103116.91;5057202;28;20087;-76
2022/12/19 06:03:35;;;;;;;34.22;15.52;;;;;;;3.08;59.10;103160.03;5055981;28;20039;-75
2022/12/19 06:06:09;;;;;;;83.93;17.85;;;;;;;3.16;58.99;103168.81;5050237;28;20469;-75
2022/12/19 06:08:35;;;;;;;33.03;13.38;;;;;;;3.13;58.74;103169.72;5050036;28;20479;-78
2022/12/19 06:11:02;;;;;;;38.03;14.18;;;;;;;2.95;59.11;103184.97;5050136;28;20056;-77
2022/12/19 06:13:29;;;;;;;30.73;13.88;;;;;;;2.90;58.89;103182.38;5049610;28;20108;-77
2022/12/19 06:16:11;;;;;;;55.50;13.93;;;;;;;2.98;59.07;103187.59;5050334;28;20029;-76
2022/12/19 06:18:38;;;;;;;38.83;13.80;;;;;;;2.84;58.90;103198.38;5049662;28;20322;-77
2022/12/19 06:21:09;;;;;;;48.13;14.25;;;;;;;2.75;58.91;103161.25;5049352;28;20574;-77
2022/12/19 06:23:37;;;;;;;45.97;14.87;;;;;;;3.12;58.60;103202.53;5049868;28;20112;-78
2022/12/19 06:26:05;;;;;;;44.05;14.02;;;;;;;3.13;58.23;103191.00;5049664;28;20040;-77
2022/12/19 06:28:32;;;;;;;40.78;15.75;;;;;;;2.78;58.52;103179.81;5049426;28;20499;-76
2022/12/19 06:30:58;;;;;;;45.00;14.38;;;;;;;3.04;58.83;103223.00;5049553;28;20147;-77
2022/12/19 06:33:25;;;;;;;46.38;16.48;;;;;;;3.06;58.62;103221.19;5049068;28;20029;-77
2022/12/19 06:36:21;;;;;;;38.72;15.07;;;;;;;3.13;58.58;103225.56;5049787;28;20037;-77
2022/12/19 06:38:47;;;;;;;37.08;15.00;;;;;;;3.03;57.67;103218.56;5048574;28;20534;-75
2022/12/19 06:44:03;;;;;;;34.50;14.55;;;;;;;3.02;58.20;103240.75;5049015;28;20071;-77
2022/12/19 06:46:29;;;;;;;36.28;14.48;;;;;;;3.01;57.50;103244.28;5049057;28;20036;-76
2022/12/19 06:48:54;;;;;;;33.78;14.82;;;;;;;2.91;57.67;103234.63;5048952;28;20052;-76
2022/12/19 06:51:20;;;;;;;36.67;14.77;;;;;;;2.89;57.76;103244.41;5049335;28;20039;-76
2022/12/19 06:53:45;;;;;;;36.53;14.32;;;;;;;2.89;57.80;103241.75;5048797;28;20047;-77
2022/12/19 06:56:12;;;;;;;34.38;13.30;;;;;;;2.79;57.80;103240.03;5049263;28;20025;-76
2022/12/19 06:58:38;;;;;;;38.08;14.25;;;;;;;2.67;57.96;103256.06;5049121;28;20028;-76
2022/12/19 07:01:03;;;;;;;42.45;14.70;;;;;;;2.59;58.35;103255.25;5046915;28;20118;-78
2022/12/19 07:03:37;;;;;;;33.47;15.23;;;;;;;2.52;58.24;103254.41;5053678;28;20546;-77
2022/12/19 07:06:04;;;;;;;37.33;14.63;;;;;;;2.34;58.66;103258.94;5054046;28;20025;-77
2022/12/19 07:08:29;;;;;;;34.28;14.80;;;;;;;2.25;58.86;103257.22;5050313;28;20099;-76
2022/12/19 07:10:55;;;;;;;39.78;14.13;;;;;;;2.20;59.15;103272.28;5052999;28;20029;-77
2022/12/19 07:13:21;;;;;;;45.45;15.95;;;;;;;2.15;59.22;103267.00;5053670;28;20032;-75
2022/12/19 07:15:47;;;;;;;48.30;15.23;;;;;;;2.19;59.43;103271.41;5053247;28;20481;-77
2022/12/19 07:18:13;;;;;;;44.55;17.30;;;;;;;2.34;59.33;103272.22;5053306;28;20072;-77
2022/12/19 07:20:41;;;;;;;95.97;18.67;;;;;;;2.49;59.49;103269.47;5053005;28;20024;-76
2022/12/19 07:23:09;;;;;;;34.45;14.13;;;;;;;2.70;59.29;103277.31;5052911;28;20079;-77
2022/12/19 07:25:36;;;;;;;35.97;14.15;;;;;;;2.80;58.87;103284.31;5052238;28;20045;-76
2022/12/19 07:28:02;;;;;;;32.05;14.25;;;;;;;2.71;58.78;103244.53;5052873;28;20040;-76
2022/12/19 07:30:28;;;;;;;64.10;14.60;;;;;;;2.90;58.20;103262.13;5050190;28;20037;-78
2022/12/19 07:32:53;;;;;;;39.95;14.95;;;;;;;2.92;57.74;103286.91;5052300;28;20029;-76
2022/12/19 07:35:22;;;;;;;31.45;13.52;;;;;;;2.97;57.74;103285.06;5052414;28;20028;-78
2022/12/19 07:37:48;;;;;;;32.10;14.15;;;;;;;3.02;57.59;103288.59;5052441;28;20032;-76
2022/12/19 07:40:14;;;;;;;32.88;15.30;;;;;;;3.04;57.12;103296.56;5052078;28;20068;-77
2022/12/19 07:42:39;;;;;;;45.45;16.90;;;;;;;3.12;57.37;103295.59;5051938;28;20033;-75
2022/12/19 07:45:05;;;;;;;39.75;14.90;;;;;;;3.09;57.35;103290.28;5052532;28;20032;-78
2022/12/19 07:47:31;;;;;;;30.95;13.13;;;;;;;2.94;57.16;103262.94;5051909;28;20074;-76
2022/12/19 07:49:56;;;;;;;43.35;15.23;;;;;;;3.11;57.54;103299.16;5051718;28;20053;-77
2022/12/19 07:52:22;;;;;;;52.92;16.55;;;;;;;3.03;57.93;103302.75;5051843;28;20029;-75
2022/12/19 07:54:47;;;;;;;40.65;16.65;;;;;;;3.14;58.09;103298.25;5052117;28;20045;-76
2022/12/19 07:57:14;;;;;;;47.13;15.00;;;;;;;3.28;58.41;103305.22;5052275;28;20543;-78
2022/12/19 07:59:39;;;;;;;42.83;14.68;;;;;;;3.35;57.79;103298.06;5052303;28;20044;-77
2022/12/19 08:02:05;;;;;;;38.92;13.30;;;;;;;3.40;57.48;103309.53;5054509;28;20400;-77
2022/12/19 08:04:30;;;;;;;49.80;15.65;;;;;;;3.63;56.97;103306.69;5055147;28;20028;-76
2022/12/19 08:06:56;;;;;;;47.08;16.90;;;;;;;3.81;56.61;103302.06;5055402;28;20472;-76
2022/12/19 08:09:21;;;;;;;48.85;15.40;;;;;;;3.87;55.58;103311.75;5054649;28;20040;-76
2022/12/19 08:11:46;;;;;;;41.63;14.90;;;;;;;4.03;55.96;103316.00;5054411;28;20055;-77
2022/12/19 08:14:12;;;;;;;41.90;15.50;;;;;;;4.09;55.45;103321.25;5051941;28;20033;-77
2022/12/19 08:16:37;;;;;;;35.42;15.07;;;;;;;4.13;55.62;103312.31;5052475;28;20025;-77
2022/12/19 08:19:03;;;;;;;37.95;17.85;;;;;;;4.23;55.44;103310.44;5052370;28;20119;-77
2022/12/19 08:21:29;;;;;;;37.08;14.50;;;;;;;3.95;55.05;103237.09;5052368;28;20021;-77
2022/12/19 08:23:54;;;;;;;35.05;14.02;;;;;;;4.37;54.44;103317.34;5051775;28;20076;-77
2022/12/19 08:26:23;;;;;;;34.83;15.63;;;;;;;4.27;54.48;103309.50;5051354;28;20491;-76
2022/12/19 08:28:54;;;;;;;35.58;15.73;;;;;;;4.26;54.66;103316.59;5051455;28;20037;-78
2022/12/19 08:31:23;;;;;;;42.83;15.52;;;;;;;4.23;54.57;103313.97;5051817;28;20408;-77
2022/12/19 08:33:50;;;;;;;40.58;16.52;;;;;;;4.18;54.64;103307.84;5051925;28;20392;-77
2022/12/19 08:36:19;;;;;;;38.10;16.60;;;;;;;4.27;54.70;103302.41;5051964;28;20060;-77
2022/12/19 08:38:46;;;;;;;40.00;15.43;;;;;;;4.40;54.72;103311.13;5051741;28;20033;-77
2022/12/19 08:41:12;;;;;;;43.35;16.55;;;;;;;4.50;54.77;103301.19;5051473;28;20048;-78
2022/12/19 08:43:37;;;;;;;78.82;16.92;;;;;;;4.74;54.23;103303.53;5066001;28;20441;-78
2022/12/19 08:46:04;;;;;;;54.58;16.92;;;;;;;4.96;53.76;103296.97;5050913;28;20032;-77
2022/12/19 08:48:33;;;;;;;32.85;13.35;;;;;;;4.89;53.05;103296.16;5051533;28;20064;-77
2022/12/19 08:51:04;;;;;;;37.60;14.98;;;;;;;4.87;52.94;103305.09;5051425;28;20025;-78
2022/12/19 08:53:31;;;;;;;56.08;22.80;;;;;;;4.84;53.73;103305.16;5050782;28;20452;-77
2022/12/19 08:55:58;;;;;;;35.53;15.20;;;;;;;4.87;53.11;103303.31;5051099;28;20150;-77
2022/12/19 08:58:25;;;;;;;29.88;13.82;;;;;;;4.91;52.63;103298.81;5051588;28;20068;-77
2022/12/19 09:00:52;;;;;;;36.22;14.00;;;;;;;4.55;52.60;103262.06;5051327;28;20075;-78
2022/12/19 09:03:18;;;;;;;39.28;14.27;;;;;;;4.45;52.42;103244.41;5051768;28;20457;-77
2022/12/19 09:05:44;;;;;;;37.65;13.45;;;;;;;4.51;52.52;103255.88;5051030;28;20025;-76
2022/12/19 09:08:09;;;;;;;38.10;16.02;;;;;;;4.52;53.24;103288.75;5050942;28;20033;-77
2022/12/19 09:10:36;;;;;;;33.58;13.23;;;;;;;4.40;53.17;103249.84;5058828;28;20033;-79
2022/12/19 09:13:02;;;;;;;28.77;12.13;;;;;;;4.69;52.88;103284.03;5061108;28;20082;-77
2022/12/19 09:15:29;;;;;;;29.90;14.18;;;;;;;4.62;52.63;103269.03;5056957;28;20021;-77
2022/12/19 09:17:55;;;;;;;30.20;12.25;;;;;;;4.68;52.76;103271.63;5031937;28;20040;-78
2022/12/19 09:20:20;;;;;;;38.33;13.23;;;;;;;4.87;52.18;103273.09;5051187;28;20151;-78
2022/12/19 09:22:46;;;;;;;30.88;12.55;;;;;;;4.59;53.33;103271.75;5051098;28;20033;-77
2022/12/19 09:25:11;;;;;;;61.53;18.52;;;;;;;4.39;52.75;103206.31;5050754;28;20017;-77
2022/12/19 09:27:36;;;;;;;37.33;14.85;;;;;;;5.00;52.71;103271.13;5050898;28;20021;-77
2022/12/19 09:30:02;;;;;;;29.10;13.60;;;;;;;5.22;52.43;103265.41;5050979;28;20058;-78
2022/12/19 09:32:29;;;;;;;33.55;15.00;;;;;;;5.30;51.97;103262.59;5049576;28;20029;-77
2022/12/19 09:34:54;;;;;;;32.35;12.43;;;;;;;5.32;50.33;103259.00;5050129;28;20086;-78
2022/12/19 09:37:20;;;;;;;52.13;24.88;;;;;;;5.44;50.65;103264.09;5049973;28;20458;-77
2022/12/19 09:39:46;;;;;;;26.52;12.50;;;;;;;5.32;49.79;103216.31;5050097;28;20025;-77
2022/12/19 09:42:17;;;;;;;31.10;12.68;;;;;;;5.68;49.83;103256.56;5056149;28;20242;-77
2022/12/19 09:44:53;;;;;;;32.57;14.67;;;;;;;5.85;50.03;103255.38;5056581;28;20025;-76
2022/12/19 09:47:23;;;;;;;27.63;11.35;;;;;;;5.50;49.32;103215.94;5053449;28;20036;-77
2022/12/19 09:49:50;;;;;;;24.48;11.10;;;;;;;5.78;49.33;103247.50;5050394;28;20048;-78
2022/12/19 09:52:34;;;;;;;30.70;12.40;;;;;;;5.86;48.56;103237.56;5049702;28;20033;-77
2022/12/19 09:55:21;;;;;;;28.65;10.98;;;;;;;5.94;48.54;103240.94;5049816;28;20082;-77
2022/12/19 09:58:11;;;;;;;39.80;12.30;;;;;;;5.94;48.76;103228.47;5049560;28;20083;-78
2022/12/19 10:00:48;;;;;;;28.85;11.77;;;;;;;5.97;48.64;103219.50;5049665;28;20028;-77
2022/12/19 10:03:24;;;;;;;37.08;11.73;;;;;;;5.87;48.46;103188.56;5049600;28;20091;-78
2022/12/19 10:06:12;;;;;;;45.60;13.13;;;;;;;6.24;48.42;103223.41;5048244;28;20040;-78
2022/12/19 10:08:40;;;;;;;28.80;11.45;;;;;;;6.37;47.41;103216.84;5049129;28;20125;-78
2022/12/19 10:11:11;;;;;;;24.00;10.88;;;;;;;6.35;46.77;103203.53;5050075;28;20047;-77
2022/12/19 10:14:14;;;;;;;39.53;13.17;;;;;;;6.48;47.08;103194.28;5052064;28;20083;-78
2022/12/19 10:16:58;;;;;;;28.40;10.88;;;;;;;6.53;46.08;103197.75;5057556;28;20266;-77
2022/12/19 10:19:49;;;;;;;75.10;26.45;;;;;;;6.66;46.46;103190.31;5053209;28;20021;-78
2022/12/19 10:22:56;;;;;;;29.15;10.98;;;;;;;6.57;45.41;103191.41;5049677;28;20116;-78
2022/12/19 10:25:35;;;;;;;23.20;10.40;;;;;;;6.47;45.91;103200.56;5007498;28;20374;-78
2022/12/19 10:28:18;;;;;;;25.30;11.60;;;;;;;6.19;46.12;103137.97;5012005;28;20049;-78
2022/12/19 10:30:56;;;;;;;23.98;9.55;;;;;;;6.48;45.85;103185.41;5012419;28;20030;-78
2022/12/19 10:33:38;;;;;;;35.35;9.95;;;;;;;6.17;44.74;103145.16;5011273;28;20041;-78
2022/12/19 10:36:09;;;;;;;22.65;9.48;;;;;;;6.42;45.18;103183.75;5009558;28;20357;-78
2022/12/19 10:38:42;;;;;;;28.38;9.40;;;;;;;6.41;44.43;103182.00;5006939;28;20065;-78
2022/12/19 10:41:16;;;;;;;25.95;9.57;;;;;;;6.31;45.27;103187.56;5006416;28;20485;-77
2022/12/19 10:44:06;;;;;;;25.10;10.20;;;;;;;6.06;45.87;103183.69;5007292;28;20042;-77
2022/12/19 10:46:46;;;;;;;19.25;10.05;;;;;;;6.07;45.48;103174.78;5010602;28;20374;-78
2022/12/19 10:49:20;;;;;;;22.15;10.02;;;;;;;5.94;46.26;103174.16;5010417;28;20058;-79
2022/12/19 10:51:54;;;;;;;21.38;9.57;;;;;;;6.10;45.71;103178.25;5010715;28;20119;-78
2022/12/19 10:54:22;;;;;;;20.15;9.60;;;;;;;6.12;45.93;103176.44;5010612;28;20545;-79
2022/12/19 10:56:48;;;;;;;20.17;9.32;;;;;;;6.20;46.29;103168.25;5010927;28;20144;-77
2022/12/19 10:59:19;;;;;;;25.48;10.95;;;;;;;6.38;46.24;103166.03;5031501;28;20516;-78
2022/12/19 11:01:46;;;;;;;18.75;9.95;;;;;;;6.36;46.22;103186.56;5052963;28;20030;-78
2022/12/19 11:04:20;;;;;;;18.00;8.68;;;;;;;6.09;45.96;103135.53;5052512;28;20079;-78
2022/12/19 11:06:48;;;;;;;25.23;9.50;;;;;;;6.40;46.70;103172.22;5052766;28;20043;-77
2022/12/19 11:09:17;;;;;;;39.05;11.07;;;;;;;6.33;46.98;103162.56;5052511;28;20036;-78
2022/12/19 11:11:47;;;;;;;37.03;10.45;;;;;;;6.28;47.33;103176.97;5053483;28;20036;-77
2022/12/19 11:14:26;;;;;;;29.23;11.57;;;;;;;6.27;46.92;103180.56;5052821;28;20170;-78
2022/12/19 11:16:52;;;;;;;33.03;10.57;;;;;;;6.14;47.09;103171.94;5055154;28;20025;-78
2022/12/19 11:19:25;;;;;;;21.25;8.55;;;;;;;6.21;45.88;103170.03;5062992;28;20047;-78
2022/12/19 11:21:50;;;;;;;23.17;10.50;;;;;;;6.15;46.57;103183.50;5061810;28;20024;-77
2022/12/19 11:24:28;;;;;;;19.52;9.60;;;;;;;5.94;47.60;103163.47;5052741;28;20040;-77
2022/12/19 11:26:54;;;;;;;32.42;10.77;;;;;;;6.11;48.66;103172.00;5051242;28;20032;-76
2022/12/19 11:29:29;;;;;;;19.95;10.32;;;;;;;6.24;48.17;103173.47;5052497;28;20021;-78
2022/12/19 11:32:01;;;;;;;22.33;10.55;;;;;;;6.12;48.37;103170.19;5052609;28;20087;-76
2022/12/19 11:34:30;;;;;;;35.72;11.00;;;;;;;5.90;48.98;103135.09;5052736;28;20476;-77
2022/12/19 11:37:14;;;;;;;25.95;10.23;;;;;;;6.29;48.76;103163.56;5051024;28;20021;-77